createdAt,value
2022-11-29T00:01:10.930Z,98382.97
2022-11-29T00:03:37.576Z,98390.09
2022-11-29T00:06:04.884Z,98395.78
2022-11-29T00:08:31.319Z,98389.25
2022-11-29T00:11:03.355Z,98390.28
2022-11-29T00:13:29.764Z,98390.94
2022-11-29T00:15:56.145Z,98385.28
2022-11-29T00:18:22.541Z,98385.44
2022-11-29T00:20:48.950Z,98383.25
2022-11-29T00:23:15.339Z,98373.22
2022-11-29T00:25:41.721Z,98378.41
2022-11-29T00:28:08.152Z,98372.09
2022-11-29T00:30:34.874Z,98358.91
2022-11-29T00:33:02.989Z,98376.25
2022-11-29T00:35:29.391Z,98379.09
2022-11-29T00:37:55.803Z,98375.75
2022-11-29T00:40:22.205Z,98374.41
2022-11-29T00:42:48.618Z,98381.91
2022-11-29T00:45:15.012Z,98366.22
2022-11-29T00:47:41.460Z,98377.22
2022-11-29T00:50:08.222Z,98370.25
2022-11-29T00:52:34.626Z,98375.88
2022-11-29T00:55:01.090Z,98378.69
2022-11-29T00:57:27.631Z,98372.88
2022-11-29T00:59:53.908Z,98372.69
2022-11-29T01:02:20.389Z,98371.34
2022-11-29T01:04:47.211Z,98372.88
2022-11-29T01:07:13.802Z,98372.53
2022-11-29T01:09:40.325Z,98378.19
2022-11-29T01:12:06.890Z,98371.88
2022-11-29T01:14:33.316Z,98374.84
2022-11-29T01:16:59.826Z,98373.19
2022-11-29T01:19:26.270Z,98375.34
2022-11-29T01:21:52.724Z,98380.69
2022-11-29T01:24:19.111Z,98381.00
2022-11-29T01:26:45.778Z,98383.84
2022-11-29T01:29:12.901Z,98385.16
2022-11-29T01:31:39.296Z,98385.44
2022-11-29T01:34:06.896Z,98378.84
2022-11-29T01:36:34.390Z,98379.50
2022-11-29T01:39:02.397Z,98391.00
2022-11-29T01:41:32.075Z,98385.50
2022-11-29T01:44:06.907Z,98385.50
2022-11-29T01:46:39.115Z,98390.53
2022-11-29T01:49:22.125Z,98390.00
2022-11-29T01:51:55.883Z,98391.97
2022-11-29T01:54:22.701Z,98399.31
2022-11-29T01:56:51.616Z,98382.50
2022-11-29T01:59:22.066Z,98382.50
2022-11-29T02:01:48.637Z,98379.66
2022-11-29T02:04:17.418Z,98376.00
2022-11-29T02:06:44.392Z,98376.00
2022-11-29T02:09:19.747Z,98366.19
2022-11-29T02:12:11.706Z,98367.53
2022-11-29T02:15:06.766Z,98368.84
2022-11-29T02:17:44.948Z,98370.66
2022-11-29T02:20:26.607Z,98364.50
2022-11-29T02:22:56.027Z,98362.78
2022-11-29T02:26:00.708Z,98357.44
2022-11-29T02:28:36.610Z,98354.94
2022-11-29T02:31:39.908Z,98357.59
2022-11-29T02:34:06.293Z,98358.41
2022-11-29T02:36:45.359Z,98359.41
2022-11-29T02:39:36.399Z,98355.06
2022-11-29T02:42:52.583Z,98359.22
2022-11-29T02:45:41.755Z,98357.91
2022-11-29T02:48:27.538Z,98363.41
2022-11-29T02:51:19.792Z,98361.25
2022-11-29T02:54:16.637Z,98360.75
2022-11-29T02:56:46.219Z,98364.72
2022-11-29T02:59:16.654Z,98368.06
2022-11-29T03:01:52.416Z,98366.06
2022-11-29T03:05:10.320Z,98376.38
2022-11-29T03:07:45.791Z,98374.53
2022-11-29T03:10:49.179Z,98374.38
2022-11-29T03:13:45.425Z,98380.69
2022-11-29T03:16:28.532Z,98380.84
2022-11-29T03:19:00.550Z,98380.69
2022-11-29T03:21:41.782Z,98385.72
2022-11-29T03:24:45.111Z,98376.88
2022-11-29T03:27:22.068Z,98380.16
2022-11-29T03:29:56.127Z,98381.34
2022-11-29T03:32:29.881Z,98386.66
2022-11-29T03:35:07.050Z,98391.13
2022-11-29T03:37:33.347Z,98391.81
2022-11-29T03:40:06.745Z,98383.00
2022-11-29T03:42:41.062Z,98394.66
2022-11-29T03:45:15.289Z,98396.84
2022-11-29T03:47:51.285Z,98390.81
2022-11-29T03:50:25.018Z,98394.66
2022-11-29T03:53:00.156Z,98395.28
2022-11-29T03:55:50.535Z,98394.44
2022-11-29T03:58:48.611Z,98401.59
2022-11-29T04:01:51.013Z,98403.34
2022-11-29T04:04:27.516Z,98411.16
2022-11-29T04:07:18.554Z,98401.63
2022-11-29T04:10:11.729Z,98400.94
2022-11-29T04:12:57.299Z,98398.47
2022-11-29T04:16:04.129Z,98406.59
2022-11-29T04:18:46.708Z,98397.09
2022-11-29T04:21:43.258Z,98400.44
2022-11-29T04:24:38.917Z,98397.41
2022-11-29T04:27:17.575Z,98405.69
2022-11-29T04:30:02.565Z,98404.72
2022-11-29T04:33:10.098Z,98408.66
2022-11-29T04:35:42.841Z,98413.31
2022-11-29T04:38:45.416Z,98418.13
2022-11-29T04:41:20.856Z,98419.25
2022-11-29T04:43:59.284Z,98426.56
2022-11-29T04:46:47.781Z,98421.22
2022-11-29T04:49:52.041Z,98425.03
2022-11-29T04:52:36.664Z,98436.81
2022-11-29T04:55:30.475Z,98425.66
2022-11-29T04:58:22.854Z,98428.00
2022-11-29T05:01:07.949Z,98436.31
2022-11-29T05:03:41.684Z,98439.41
2022-11-29T05:06:19.094Z,98439.72
2022-11-29T05:08:59.379Z,98443.97
2022-11-29T05:11:35.003Z,98447.31
2022-11-29T05:14:17.540Z,98451.13
2022-11-29T05:16:48.823Z,98447.22
2022-11-29T05:19:41.483Z,98455.75
2022-11-29T05:22:34.110Z,98447.69
2022-11-29T05:25:30.363Z,98458.47
2022-11-29T05:28:10.014Z,98457.47
2022-11-29T05:31:18.764Z,98455.66
2022-11-29T05:33:45.154Z,98453.16
2022-11-29T05:36:29.862Z,98462.28
2022-11-29T05:39:15.812Z,98457.09
2022-11-29T05:41:56.747Z,98467.03
2022-11-29T05:44:35.535Z,98465.28
2022-11-29T05:47:05.928Z,98460.56
2022-11-29T05:49:44.751Z,98461.84
2022-11-29T05:52:39.212Z,98461.75
2022-11-29T05:55:15.027Z,98464.09
2022-11-29T05:58:08.390Z,98464.41
2022-11-29T06:00:45.958Z,98472.56
2022-11-29T06:03:24.007Z,98474.25
2022-11-29T06:05:58.323Z,98481.69
2022-11-29T06:08:44.522Z,98480.00
2022-11-29T06:11:16.487Z,98476.03
2022-11-29T06:14:07.942Z,98481.53
2022-11-29T06:16:56.929Z,98480.47
2022-11-29T06:19:59.674Z,98477.41
2022-11-29T06:22:48.921Z,98488.31
2022-11-29T06:25:41.827Z,98487.75
2022-11-29T06:28:41.720Z,98490.03
2022-11-29T06:31:29.527Z,98488.34
2022-11-29T06:34:09.228Z,98496.75
2022-11-29T06:37:08.653Z,98493.53
2022-11-29T06:39:35.583Z,98501.50
2022-11-29T06:42:02.185Z,98490.88
2022-11-29T06:44:28.695Z,98498.72
2022-11-29T06:47:01.084Z,98498.03
2022-11-29T06:49:35.600Z,98502.50
2022-11-29T06:52:26.488Z,98503.75
2022-11-29T06:55:07.561Z,98508.53
2022-11-29T06:57:36.919Z,98515.66
2022-11-29T07:00:16.298Z,98515.38
2022-11-29T07:03:20.202Z,98518.59
2022-11-29T07:05:47.351Z,98517.59
2022-11-29T07:08:19.982Z,98522.91
2022-11-29T07:10:49.940Z,98520.56
2022-11-29T07:13:18.028Z,98526.56
2022-11-29T07:16:07.077Z,98523.63
2022-11-29T07:18:39.264Z,98533.66
2022-11-29T07:21:16.712Z,98529.34
2022-11-29T07:24:04.547Z,98533.66
2022-11-29T07:26:43.593Z,98539.69
2022-11-29T07:29:25.264Z,98541.75
2022-11-29T07:32:34.348Z,98538.13
2022-11-29T07:35:08.662Z,98536.16
2022-11-29T07:37:57.588Z,98541.47
2022-11-29T07:40:24.183Z,98541.19
2022-11-29T07:42:50.500Z,98539.63
2022-11-29T07:45:27.385Z,98535.00
2022-11-29T07:47:54.111Z,98542.66
2022-11-29T07:50:21.691Z,98553.69
2022-11-29T07:52:48.708Z,98547.78
2022-11-29T07:55:19.152Z,98540.38
2022-11-29T07:57:46.553Z,98546.63
2022-11-29T08:00:13.933Z,98543.25
2022-11-29T08:02:41.770Z,98550.47
2022-11-29T08:05:09.227Z,98545.75
2022-11-29T08:07:37.816Z,98553.41
2022-11-29T08:10:07.156Z,98555.09
2022-11-29T08:12:33.570Z,98551.84
2022-11-29T08:15:00.153Z,98552.66
2022-11-29T08:17:26.699Z,98561.28
2022-11-29T08:19:53.076Z,98557.19
2022-11-29T08:22:19.888Z,98556.44
2022-11-29T08:24:46.555Z,98555.28
2022-11-29T08:27:13.249Z,98548.22
2022-11-29T08:29:39.719Z,98562.78
2022-11-29T08:32:06.349Z,98561.56
2022-11-29T08:34:34.083Z,98562.38
2022-11-29T08:37:00.439Z,98562.84
2022-11-29T08:39:26.894Z,98561.03
2022-11-29T08:41:53.298Z,98569.84
2022-11-29T08:44:20.091Z,98567.81
2022-11-29T08:47:04.960Z,98570.59
2022-11-29T08:49:31.381Z,98573.66
2022-11-29T08:52:17.743Z,98569.47
2022-11-29T08:54:44.690Z,98570.16
2022-11-29T08:57:38.390Z,98566.34
2022-11-29T08:59:57.709Z,98568.88
2022-11-29T09:02:26.701Z,98571.28
2022-11-29T09:04:53.139Z,98567.31
2022-11-29T09:07:19.590Z,98568.81
2022-11-29T09:09:46.140Z,98568.31
2022-11-29T09:12:12.527Z,98565.34
2022-11-29T09:14:38.905Z,98570.16
2022-11-29T09:17:05.431Z,98575.69
2022-11-29T09:19:32.322Z,98575.88
2022-11-29T09:21:58.708Z,98578.91
2022-11-29T09:24:25.233Z,98584.94
2022-11-29T09:26:52.270Z,98584.78
2022-11-29T09:29:18.859Z,98584.25
2022-11-29T09:31:45.335Z,98584.31
2022-11-29T09:34:16.087Z,98589.31
2022-11-29T09:36:44.137Z,98591.63
2022-11-29T09:39:12.373Z,98597.13
2022-11-29T09:42:06.242Z,98595.91
2022-11-29T09:44:35.457Z,98596.94
2022-11-29T09:47:20.515Z,98602.66
2022-11-29T09:50:21.228Z,98610.22
2022-11-29T09:53:09.437Z,98604.69
2022-11-29T09:55:50.136Z,98616.34
2022-11-29T09:58:21.574Z,98607.00
2022-11-29T10:00:58.509Z,98612.38
2022-11-29T10:03:45.163Z,98610.34
2022-11-29T10:06:22.086Z,98610.03
2022-11-29T10:08:55.703Z,98609.34
2022-11-29T10:11:32.889Z,98610.88
2022-11-29T10:14:24.494Z,98608.28
2022-11-29T10:17:13.746Z,98609.09
2022-11-29T10:19:47.431Z,98608.63
2022-11-29T10:22:31.362Z,98611.81
2022-11-29T10:25:01.351Z,98609.13
2022-11-29T10:27:29.495Z,98607.63
2022-11-29T10:29:59.136Z,98606.34
2022-11-29T10:32:26.096Z,98600.47
2022-11-29T10:34:52.744Z,98599.47
2022-11-29T10:37:21.460Z,98597.16
2022-11-29T10:39:58.529Z,98602.03
2022-11-29T10:42:46.869Z,98603.38
2022-11-29T10:45:35.050Z,98600.72
2022-11-29T10:48:04.153Z,98596.88
2022-11-29T10:50:33.623Z,98609.22
2022-11-29T10:53:09.441Z,98607.41
2022-11-29T10:55:46.825Z,98610.22
2022-11-29T10:58:28.402Z,98605.56
2022-11-29T11:00:57.218Z,98606.53
2022-11-29T11:03:43.323Z,98605.38
2022-11-29T11:06:14.271Z,98601.84
2022-11-29T11:08:44.840Z,98599.38
2022-11-29T11:11:12.144Z,98593.72
2022-11-29T11:13:40.796Z,98608.50
2022-11-29T11:16:14.454Z,98601.81
2022-11-29T11:18:41.316Z,98601.72
2022-11-29T11:21:11.005Z,98601.44
2022-11-29T11:23:45.447Z,98595.81
2022-11-29T11:26:13.504Z,98599.47
2022-11-29T11:29:02.281Z,98600.47
2022-11-29T11:31:35.418Z,98603.13
2022-11-29T11:34:34.241Z,98601.13
2022-11-29T11:37:22.095Z,98596.34
2022-11-29T11:39:50.120Z,98603.44
2022-11-29T11:42:39.029Z,98594.44
2022-11-29T11:45:11.486Z,98600.78
2022-11-29T11:47:44.011Z,98596.59
2022-11-29T11:50:16.606Z,98596.13
2022-11-29T11:52:53.791Z,98602.44
2022-11-29T11:55:34.409Z,98601.03
2022-11-29T11:58:12.771Z,98604.69
2022-11-29T12:03:31.414Z,98612.75
2022-11-29T12:06:07.988Z,98616.31
2022-11-29T12:08:36.626Z,98614.75
2022-11-29T12:11:07.736Z,98609.72
2022-11-29T12:13:39.800Z,98619.03
2022-11-29T12:16:14.432Z,98619.19
2022-11-29T12:18:47.603Z,98620.44
2022-11-29T12:21:22.932Z,98625.41
2022-11-29T12:23:59.952Z,98620.06
2022-11-29T12:29:19.608Z,98627.03
2022-11-29T12:32:04.321Z,98630.50
2022-11-29T12:34:43.473Z,98622.44
2022-11-29T12:37:31.367Z,98625.47
2022-11-29T12:39:57.701Z,98630.81
2022-11-29T12:42:55.131Z,98624.78
2022-11-29T12:45:33.011Z,98621.50
2022-11-29T12:48:14.535Z,98628.78
2022-11-29T12:51:06.006Z,98627.66
2022-11-29T12:53:43.748Z,98635.50
2022-11-29T12:56:25.759Z,98634.88
2022-11-29T12:59:28.770Z,98632.69
2022-11-29T13:02:16.055Z,98634.66
2022-11-29T13:05:19.412Z,98631.22
2022-11-29T13:07:48.727Z,98630.22
2022-11-29T13:10:39.901Z,98635.78
2022-11-29T13:13:25.462Z,98647.31
2022-11-29T13:16:06.682Z,98639.69
2022-11-29T13:18:47.278Z,98644.47
2022-11-29T13:21:25.888Z,98650.50
2022-11-29T13:24:42.978Z,98646.03
2022-11-29T13:27:18.251Z,98646.69
2022-11-29T13:29:46.260Z,98647.13
2022-11-29T13:32:36.332Z,98640.88
2022-11-29T13:35:20.184Z,98644.22
2022-11-29T13:38:08.540Z,98638.34
2022-11-29T13:40:51.803Z,98643.06
2022-11-29T13:43:30.295Z,98643.84
2022-11-29T13:46:16.862Z,98648.19
2022-11-29T13:48:47.589Z,98644.22
2022-11-29T13:51:34.391Z,98644.84
2022-11-29T13:54:04.808Z,98643.47
2022-11-29T13:56:47.824Z,98639.69
2022-11-29T13:59:31.624Z,98651.72
2022-11-29T14:01:59.145Z,98647.75
2022-11-29T14:04:33.682Z,98644.78
2022-11-29T14:07:18.364Z,98651.75
2022-11-29T14:09:50.658Z,98654.59
2022-11-29T14:12:35.900Z,98652.41
2022-11-29T14:15:31.663Z,98653.41
2022-11-29T14:18:03.511Z,98657.09
2022-11-29T14:20:29.920Z,98656.44
2022-11-29T14:23:05.395Z,98659.56
2022-11-29T14:25:51.103Z,98660.72
2022-11-29T14:28:18.239Z,98661.00
2022-11-29T14:30:44.560Z,98659.94
2022-11-29T14:33:38.501Z,98654.91
2022-11-29T14:36:43.595Z,98664.88
2022-11-29T14:39:13.043Z,98663.22
2022-11-29T14:41:54.510Z,98665.72
2022-11-29T14:44:28.024Z,98663.44
2022-11-29T14:47:02.263Z,98666.41
2022-11-29T14:49:30.115Z,98657.09
2022-11-29T14:52:26.088Z,98662.44
2022-11-29T14:55:01.774Z,98663.09
2022-11-29T14:57:52.787Z,98664.28
2022-11-29T15:00:30.383Z,98670.34
2022-11-29T15:03:20.514Z,98674.25
2022-11-29T15:05:59.438Z,98677.44
2022-11-29T15:08:36.625Z,98684.97
2022-11-29T15:11:11.687Z,98674.63
2022-11-29T15:14:04.690Z,98677.44
2022-11-29T15:17:20.057Z,98678.28
2022-11-29T15:20:23.668Z,98683.41
2022-11-29T15:22:55.152Z,98681.25
2022-11-29T15:25:28.233Z,98685.28
2022-11-29T15:27:57.447Z,98685.06
2022-11-29T15:30:39.047Z,98682.03
2022-11-29T15:33:27.307Z,98687.88
2022-11-29T15:36:24.246Z,98682.25
2022-11-29T15:38:55.365Z,98692.09
2022-11-29T15:41:31.796Z,98694.19
2022-11-29T15:44:04.682Z,98689.56
2022-11-29T15:46:33.303Z,98699.53
2022-11-29T15:49:30.578Z,98692.69
2022-11-29T15:52:05.955Z,98701.13
2022-11-29T15:54:41.994Z,98697.41
2022-11-29T15:57:33.099Z,98703.06
2022-11-29T16:00:02.809Z,98707.22
2022-11-29T16:02:34.481Z,98700.00
2022-11-29T16:05:19.464Z,98706.09
2022-11-29T16:07:49.281Z,98712.41
2022-11-29T16:10:34.867Z,98708.59
2022-11-29T16:13:36.825Z,98704.25
2022-11-29T16:16:06.153Z,98707.75
2022-11-29T16:18:33.506Z,98711.44
2022-11-29T16:21:01.553Z,98719.25
2022-11-29T16:23:41.216Z,98704.25
2022-11-29T16:26:18.976Z,98715.09
2022-11-29T16:28:48.294Z,98711.72
2022-11-29T16:31:18.132Z,98709.38
2022-11-29T16:33:47.341Z,98720.03
2022-11-29T16:36:20.614Z,98716.75
2022-11-29T16:38:50.171Z,98721.72
2022-11-29T16:41:37.565Z,98722.84
2022-11-29T16:44:06.406Z,98732.50
2022-11-29T16:46:39.758Z,98726.19
2022-11-29T16:49:35.025Z,98726.66
2022-11-29T16:52:03.747Z,98730.00
2022-11-29T16:54:34.009Z,98722.16
2022-11-29T16:57:05.108Z,98729.16
2022-11-29T16:59:32.442Z,98732.81
2022-11-29T17:01:59.032Z,98734.09
2022-11-29T17:04:27.442Z,98731.28
2022-11-29T17:06:55.805Z,98727.78
2022-11-29T17:09:27.748Z,98730.00
2022-11-29T17:11:55.654Z,98737.31
2022-11-29T17:14:22.184Z,98732.66
2022-11-29T17:16:49.585Z,98738.44
2022-11-29T17:19:16.518Z,98733.97
2022-11-29T17:21:43.131Z,98725.41
2022-11-29T17:24:11.192Z,98736.75
2022-11-29T17:26:37.752Z,98733.84
2022-11-29T17:29:04.181Z,98732.59
2022-11-29T17:31:31.353Z,98728.50
2022-11-29T17:34:01.631Z,98734.41
2022-11-29T17:36:28.593Z,98747.00
2022-11-29T17:38:55.019Z,98740.28
2022-11-29T17:41:23.691Z,98737.63
2022-11-29T17:43:52.971Z,98742.13
2022-11-29T17:46:26.499Z,98740.47
2022-11-29T17:48:54.809Z,98744.94
2022-11-29T17:51:50.577Z,98750.25
2022-11-29T17:54:10.300Z,98748.88
2022-11-29T17:56:37.015Z,98752.69
2022-11-29T17:59:04.883Z,98751.03
2022-11-29T18:01:34.039Z,98752.00
2022-11-29T18:04:03.179Z,98748.38
2022-11-29T18:06:34.121Z,98757.88
2022-11-29T18:09:01.684Z,98766.16
2022-11-29T18:11:30.998Z,98763.66
2022-11-29T18:13:58.892Z,98766.63
2022-11-29T18:16:31.236Z,98762.81
2022-11-29T18:19:10.505Z,98760.81
2022-11-29T18:21:38.199Z,98772.34
2022-11-29T18:24:06.042Z,98766.16
2022-11-29T18:26:34.413Z,98773.31
2022-11-29T18:29:00.979Z,98769.28
2022-11-29T18:31:31.778Z,98767.00
2022-11-29T18:34:00.636Z,98776.97
2022-11-29T18:36:32.174Z,98779.63
2022-11-29T18:39:01.222Z,98775.81
2022-11-29T18:41:29.890Z,98778.66
2022-11-29T18:43:58.911Z,98778.34
2022-11-29T18:46:26.598Z,98779.34
2022-11-29T18:48:53.084Z,98772.63
2022-11-29T18:51:20.192Z,98781.31
2022-11-29T18:53:47.310Z,98779.25
2022-11-29T18:56:20.002Z,98771.94
2022-11-29T18:58:48.037Z,98776.13
2022-11-29T19:01:17.287Z,98770.25
2022-11-29T19:03:46.161Z,98778.25
2022-11-29T19:06:15.511Z,98781.91
2022-11-29T19:08:43.180Z,98777.97
2022-11-29T19:11:17.842Z,98780.91
2022-11-29T19:13:44.620Z,98786.25
2022-11-29T19:16:15.525Z,98784.28
2022-11-29T19:18:42.558Z,98781.22
2022-11-29T19:21:16.465Z,98781.91
2022-11-29T19:23:44.311Z,98787.38
2022-11-29T19:26:13.563Z,98786.25
2022-11-29T19:28:45.367Z,98783.72
2022-11-29T19:31:14.292Z,98787.38
2022-11-29T19:33:43.627Z,98791.19
2022-11-29T19:36:17.825Z,98781.63
2022-11-29T19:38:50.141Z,98784.31
2022-11-29T19:41:22.331Z,98785.56
2022-11-29T19:43:49.410Z,98789.22
2022-11-29T19:46:22.004Z,98792.41
2022-11-29T19:48:49.295Z,98796.06
2022-11-29T19:51:19.416Z,98789.59
2022-11-29T19:53:47.140Z,98794.94
2022-11-29T19:56:17.502Z,98787.75
2022-11-29T19:58:44.325Z,98800.56
2022-11-29T20:01:17.278Z,98798.31
2022-11-29T20:03:45.196Z,98803.91
2022-11-29T20:06:13.392Z,98806.81
2022-11-29T20:08:40.846Z,98804.16
2022-11-29T20:11:19.376Z,98804.00
2022-11-29T20:13:48.094Z,98802.34
2022-11-29T20:16:18.218Z,98802.63
2022-11-29T20:18:50.966Z,98810.47
2022-11-29T20:21:28.104Z,98802.47
2022-11-29T20:23:59.998Z,98798.28
2022-11-29T20:26:30.866Z,98795.75
2022-11-29T20:28:57.759Z,98799.13
2022-11-29T20:31:25.204Z,98797.59
2022-11-29T20:33:53.786Z,98804.44
2022-11-29T20:36:48.165Z,98810.91
2022-11-29T20:39:37.656Z,98805.28
2022-11-29T20:42:29.122Z,98809.47
2022-11-29T20:44:59.258Z,98803.31
2022-11-29T20:47:28.414Z,98803.31
2022-11-29T20:49:55.257Z,98808.09
2022-11-29T20:52:45.701Z,98807.28
2022-11-29T20:55:12.203Z,98810.34
2022-11-29T20:57:38.695Z,98815.56
2022-11-29T21:00:11.533Z,98811.75
2022-11-29T21:02:38.795Z,98813.59
2022-11-29T21:05:06.150Z,98814.28
2022-11-29T21:07:32.724Z,98818.50
2022-11-29T21:10:01.358Z,98810.91
2022-11-29T21:12:29.617Z,98806.28
2022-11-29T21:14:57.020Z,98811.50
2022-11-29T21:17:27.540Z,98808.16
2022-11-29T21:19:58.699Z,98806.19
2022-11-29T21:23:00.719Z,98807.84
2022-11-29T21:25:40.585Z,98814.16
2022-11-29T21:28:12.812Z,98810.34
2022-11-29T21:30:41.518Z,98809.81
2022-11-29T21:33:10.000Z,98808.00
2022-11-29T21:35:39.765Z,98819.78
2022-11-29T21:38:10.048Z,98811.63
2022-11-29T21:40:36.472Z,98804.22
2022-11-29T21:43:02.864Z,98810.41
2022-11-29T21:45:29.311Z,98810.25
2022-11-29T21:47:59.502Z,98806.66
2022-11-29T21:50:28.780Z,98807.34
2022-11-29T21:52:56.911Z,98807.47
2022-11-29T21:55:31.417Z,98811.41
2022-11-29T21:57:58.670Z,98807.47
2022-11-29T22:00:25.071Z,98820.91
2022-11-29T22:02:51.650Z,98816.03
2022-11-29T22:05:17.998Z,98821.47
2022-11-29T22:07:44.434Z,98815.63
2022-11-29T22:10:13.650Z,98817.03
2022-11-29T22:12:45.911Z,98818.41
2022-11-29T22:15:22.952Z,98814.34
2022-11-29T22:17:52.188Z,98822.00
2022-11-29T22:20:18.682Z,98819.31
2022-11-29T22:22:47.521Z,98820.78
2022-11-29T22:25:14.653Z,98828.13
2022-11-29T22:27:41.071Z,98824.09
2022-11-29T22:30:08.984Z,98828.97
2022-11-29T22:32:35.483Z,98811.56
2022-11-29T22:35:01.862Z,98821.13
2022-11-29T22:37:28.316Z,98819.75
2022-11-29T22:39:54.772Z,98822.53
2022-11-29T22:42:21.175Z,98817.72
2022-11-29T22:44:48.072Z,98825.59
2022-11-29T22:47:14.620Z,98817.50
2022-11-29T22:49:41.030Z,98824.38
2022-11-29T22:52:07.509Z,98817.06
2022-11-29T22:54:33.898Z,98822.94
2022-11-29T22:57:00.334Z,98817.47
2022-11-29T22:59:26.699Z,98816.34
2022-11-29T23:01:53.182Z,98813.84
2022-11-29T23:04:19.565Z,98817.03
2022-11-29T23:06:46.270Z,98815.81
2022-11-29T23:09:19.831Z,98815.81
2022-11-29T23:11:52.733Z,98824.09
2022-11-29T23:14:20.114Z,98820.28
2022-11-29T23:16:46.948Z,98822.53
2022-11-29T23:19:16.011Z,98814.38
2022-11-29T23:21:44.610Z,98818.59
2022-11-29T23:24:11.405Z,98822.94
2022-11-29T23:26:41.098Z,98817.44
2022-11-29T23:29:10.530Z,98815.91
2022-11-29T23:31:36.997Z,98817.19
2022-11-29T23:34:03.577Z,98818.88
2022-11-29T23:36:29.997Z,98814.94
2022-11-29T23:38:56.410Z,98811.56
2022-11-29T23:41:22.888Z,98810.72
2022-11-29T23:43:49.301Z,98814.94
2022-11-29T23:46:21.271Z,98817.72
2022-11-29T23:48:48.351Z,98816.34
2022-11-29T23:51:16.184Z,98812.41
2022-11-29T23:53:43.044Z,98812.56
2022-11-29T23:56:15.059Z,98815.22
2022-11-29T23:58:42.210Z,98819.41
